createdAt,value
2023-04-01T00:01:29.268Z,86.23
2023-04-01T00:03:57.404Z,86.50
2023-04-01T00:06:24.685Z,86.11
2023-04-01T00:08:51.646Z,86.38
2023-04-01T00:11:23.992Z,86.25
2023-04-01T00:13:50.662Z,86.19
2023-04-01T00:16:22.129Z,86.08
2023-04-01T00:18:50.704Z,86.11
2023-04-01T00:21:17.759Z,86.36
2023-04-01T00:23:44.858Z,86.29
2023-04-01T00:26:13.280Z,86.07
2023-04-01T00:28:41.342Z,86.03
2023-04-01T00:31:09.771Z,86.26
2023-04-01T00:33:37.042Z,85.93
2023-04-01T00:36:32.898Z,86.36
2023-04-01T00:39:09.170Z,85.94
2023-04-01T00:41:36.637Z,86.37
2023-04-01T00:44:26.173Z,86.34
2023-04-01T00:46:56.042Z,86.42
2023-04-01T00:49:30.948Z,86.19
2023-04-01T00:52:01.275Z,86.52
2023-04-01T00:54:31.176Z,86.36
2023-04-01T00:57:11.476Z,86.21
2023-04-01T00:59:45.242Z,86.52
2023-04-01T01:02:14.012Z,86.57
2023-04-01T01:04:40.903Z,86.51
2023-04-01T01:07:16.630Z,86.63
2023-04-01T01:09:55.437Z,86.64
2023-04-01T01:12:31.915Z,86.65
2023-04-01T01:15:04.607Z,86.74
2023-04-01T01:17:40.781Z,86.78
2023-04-01T01:20:25.464Z,86.67
2023-04-01T01:23:19.640Z,86.84
2023-04-01T01:26:27.069Z,86.92
2023-04-01T01:29:12.705Z,86.73
2023-04-01T01:31:57.352Z,86.99
2023-04-01T01:34:28.178Z,86.89
2023-04-01T01:37:04.543Z,87.00
2023-04-01T01:39:34.784Z,86.98
2023-04-01T01:42:09.682Z,86.54
2023-04-01T01:44:38.744Z,86.76
2023-04-01T01:47:06.714Z,86.89
2023-04-01T01:49:34.959Z,86.73
2023-04-01T01:52:08.415Z,86.61
2023-04-01T01:54:35.113Z,86.81
2023-04-01T01:57:18.346Z,86.65
2023-04-01T01:59:49.292Z,86.99
2023-04-01T02:02:17.993Z,87.04
2023-04-01T02:04:47.407Z,86.86
2023-04-01T02:07:28.744Z,86.77
2023-04-01T02:09:55.709Z,86.80
2023-04-01T02:12:23.921Z,86.75
2023-04-01T02:14:59.084Z,86.78
2023-04-01T02:17:30.315Z,86.77
2023-04-01T02:20:16.728Z,87.08
2023-04-01T02:22:48.895Z,87.01
2023-04-01T02:25:26.091Z,87.13
2023-04-01T02:27:53.798Z,87.27
2023-04-01T02:30:21.980Z,87.08
2023-04-01T02:32:49.948Z,87.04
2023-04-01T02:35:18.511Z,87.36
2023-04-01T02:37:49.558Z,87.28
2023-04-01T02:40:17.854Z,87.15
2023-04-01T02:42:45.045Z,87.37
2023-04-01T02:45:14.304Z,87.00
2023-04-01T02:47:41.474Z,87.35
2023-04-01T02:50:09.051Z,87.34
2023-04-01T02:52:42.024Z,87.04
2023-04-01T02:55:09.287Z,87.22
2023-04-01T02:57:36.006Z,87.42
2023-04-01T03:00:08.906Z,87.39
2023-04-01T03:02:36.754Z,87.21
2023-04-01T03:05:03.769Z,87.40
2023-04-01T03:07:30.498Z,87.35
2023-04-01T03:09:57.299Z,87.52
2023-04-01T03:12:24.003Z,87.48
2023-04-01T03:14:50.893Z,87.42
2023-04-01T03:17:17.673Z,87.54
2023-04-01T03:19:44.419Z,87.21
2023-04-01T03:22:13.961Z,87.63
2023-04-01T03:25:40.479Z,87.38
2023-04-01T03:29:07.844Z,87.43
2023-04-01T03:32:34.464Z,87.55
2023-04-01T03:35:01.162Z,87.65
2023-04-01T03:37:27.925Z,87.56
2023-04-01T03:39:55.060Z,87.58
2023-04-01T03:42:22.066Z,87.41
2023-04-01T03:44:48.945Z,87.81
2023-04-01T03:47:15.688Z,87.63
2023-04-01T03:49:49.212Z,87.91
2023-04-01T03:52:16.077Z,87.65
2023-04-01T03:54:42.842Z,87.74
2023-04-01T03:57:09.753Z,87.78
2023-04-01T03:59:36.541Z,87.50
2023-04-01T04:02:12.504Z,87.69
2023-04-01T04:04:39.274Z,87.47
2023-04-01T04:07:05.962Z,87.60
2023-04-01T04:09:33.056Z,87.75
2023-04-01T04:12:00.295Z,87.68
2023-04-01T04:14:27.163Z,87.65
2023-04-01T04:16:54.163Z,87.59
2023-04-01T04:19:21.000Z,87.80
2023-04-01T04:21:47.653Z,87.61
2023-04-01T04:24:14.451Z,87.72
2023-04-01T04:26:41.135Z,87.58
2023-04-01T04:29:07.941Z,87.67
2023-04-01T04:31:34.841Z,87.73
2023-04-01T04:34:02.471Z,88.09
2023-04-01T04:36:29.183Z,87.73
2023-04-01T04:38:56.179Z,87.88
2023-04-01T04:41:23.247Z,87.70
2023-04-01T04:43:55.833Z,88.18
2023-04-01T04:46:30.248Z,87.86
2023-04-01T04:48:57.686Z,88.07
2023-04-01T04:51:24.759Z,87.84
2023-04-01T04:53:53.012Z,87.88
2023-04-01T04:56:23.805Z,88.21
2023-04-01T04:58:50.786Z,88.29
2023-04-01T05:01:20.764Z,88.05
2023-04-01T05:03:47.933Z,88.06
2023-04-01T05:06:16.236Z,88.18
2023-04-01T05:08:51.091Z,88.31
2023-04-01T05:11:19.827Z,88.26
2023-04-01T05:13:46.682Z,88.09
2023-04-01T05:16:23.240Z,88.36
2023-04-01T05:18:50.015Z,88.02
2023-04-01T05:21:17.117Z,88.68
2023-04-01T05:23:44.925Z,88.23
2023-04-01T05:26:14.510Z,88.22
2023-04-01T05:28:41.728Z,88.61
2023-04-01T05:31:09.252Z,88.32
2023-04-01T05:33:36.418Z,88.70
2023-04-01T05:36:11.721Z,88.66
2023-04-01T05:38:39.107Z,88.48
2023-04-01T05:41:06.041Z,88.45
2023-04-01T05:43:36.640Z,88.55
2023-04-01T05:46:03.606Z,88.74
2023-04-01T05:48:30.396Z,88.78
2023-04-01T05:50:57.265Z,88.53
2023-04-01T05:53:24.068Z,88.79
2023-04-01T05:55:50.837Z,88.65
2023-04-01T05:58:21.650Z,88.75
2023-04-01T06:00:51.612Z,88.79
2023-04-01T06:03:26.225Z,88.89
2023-04-01T06:05:53.126Z,88.93
2023-04-01T06:08:20.708Z,88.52
2023-04-01T06:11:25.228Z,88.79
2023-04-01T06:14:06.409Z,88.69
2023-04-01T06:17:30.860Z,88.56
2023-04-01T06:20:13.030Z,88.80
2023-04-01T06:23:13.758Z,88.35
2023-04-01T06:25:43.166Z,88.85
2023-04-01T06:28:38.180Z,88.81
2023-04-01T06:31:20.343Z,88.74
2023-04-01T06:34:15.090Z,88.67
2023-04-01T06:36:51.612Z,88.61
2023-04-01T06:39:24.365Z,88.65
2023-04-01T06:42:15.434Z,88.65
2023-04-01T06:44:50.194Z,88.16
2023-04-01T06:47:34.876Z,88.10
2023-04-01T06:50:32.692Z,88.45
2023-04-01T06:53:17.538Z,88.22
2023-04-01T06:55:56.977Z,88.07
2023-04-01T06:58:27.468Z,87.91
2023-04-01T07:01:05.238Z,88.04
2023-04-01T07:03:41.019Z,87.94
2023-04-01T07:06:13.855Z,88.06
2023-04-01T07:08:43.033Z,87.70
2023-04-01T07:11:28.368Z,88.07
2023-04-01T07:14:24.030Z,87.89
2023-04-01T07:17:23.358Z,87.64
2023-04-01T07:19:56.249Z,87.52
2023-04-01T07:22:28.959Z,87.68
2023-04-01T07:24:55.907Z,87.47
2023-04-01T07:27:22.562Z,87.19
2023-04-01T07:29:49.316Z,87.23
2023-04-01T07:32:51.702Z,87.26
2023-04-01T07:35:33.238Z,87.30
2023-04-01T07:38:27.120Z,87.25
2023-04-01T07:41:11.659Z,86.92
2023-04-01T07:43:56.409Z,86.87
2023-04-01T07:46:43.439Z,86.92
2023-04-01T07:49:45.655Z,86.73
2023-04-01T07:52:49.936Z,86.75
2023-04-01T07:55:23.582Z,86.81
2023-04-01T07:58:22.019Z,86.74
2023-04-01T08:01:14.783Z,86.64
2023-04-01T08:04:00.698Z,86.35
2023-04-01T08:06:39.772Z,86.46
2023-04-01T08:09:18.439Z,86.40
2023-04-01T08:12:05.338Z,86.38
2023-04-01T08:14:52.179Z,86.15
2023-04-01T08:17:29.673Z,86.15
2023-04-01T08:20:09.495Z,85.81
2023-04-01T08:22:44.143Z,85.80
2023-04-01T08:25:18.994Z,85.60
2023-04-01T08:27:50.033Z,85.62
2023-04-01T08:30:21.505Z,85.88
2023-04-01T08:32:58.664Z,85.36
2023-04-01T08:35:34.910Z,85.35
2023-04-01T08:38:12.204Z,85.44
2023-04-01T08:40:59.713Z,85.08
2023-04-01T08:43:50.723Z,84.98
2023-04-01T08:46:20.324Z,84.93
2023-04-01T08:49:17.486Z,85.03
2023-04-01T08:52:04.891Z,84.64
2023-04-01T08:54:49.700Z,84.41
2023-04-01T08:57:46.918Z,84.52
2023-04-01T09:00:33.559Z,84.21
2023-04-01T09:03:37.750Z,84.17
2023-04-01T09:06:40.874Z,83.95
2023-04-01T09:09:31.008Z,84.05
2023-04-01T09:12:23.389Z,83.89
2023-04-01T09:15:03.378Z,83.78
2023-04-01T09:17:48.614Z,83.47
2023-04-01T09:20:52.928Z,83.45
2023-04-01T09:23:46.951Z,83.74
2023-04-01T09:26:25.854Z,83.74
2023-04-01T09:29:09.902Z,83.58
2023-04-01T09:32:10.463Z,83.29
2023-04-01T09:34:54.283Z,83.39
2023-04-01T09:37:52.928Z,83.15
2023-04-01T09:40:25.520Z,83.21
2023-04-01T09:43:16.390Z,82.93
2023-04-01T09:45:47.495Z,82.63
2023-04-01T09:48:52.084Z,82.28
2023-04-01T09:51:46.896Z,82.11
2023-04-01T09:54:33.539Z,81.89
2023-04-01T09:57:31.358Z,81.49
2023-04-01T10:00:10.698Z,81.38
2023-04-01T10:03:08.415Z,80.73
2023-04-01T10:06:00.834Z,80.49
2023-04-01T10:08:56.794Z,80.14
2023-04-01T10:11:58.207Z,79.89
2023-04-01T10:14:32.976Z,79.48
2023-04-01T10:17:14.756Z,79.60
2023-04-01T10:20:00.004Z,79.14
2023-04-01T10:22:38.569Z,79.42
2023-04-01T10:25:56.288Z,79.31
2023-04-01T10:28:40.131Z,79.66
2023-04-01T10:31:12.662Z,79.61
2023-04-01T10:33:59.108Z,79.43
2023-04-01T10:36:37.789Z,79.35
2023-04-01T10:39:23.754Z,78.77
2023-04-01T10:42:24.410Z,78.75
2023-04-01T10:45:17.085Z,78.52
2023-04-01T10:47:59.228Z,78.75
2023-04-01T10:50:34.553Z,78.72
2023-04-01T10:53:05.482Z,78.41
2023-04-01T10:55:38.498Z,78.35
2023-04-01T10:58:27.079Z,78.22
2023-04-01T11:01:32.952Z,78.47
2023-04-01T11:04:20.703Z,78.28
2023-04-01T11:07:25.327Z,77.95
2023-04-01T11:10:19.723Z,77.99
2023-04-01T11:13:04.943Z,78.04
2023-04-01T11:15:50.554Z,77.25
2023-04-01T11:18:46.501Z,77.11
2023-04-01T11:21:16.544Z,76.76
2023-04-01T11:24:08.977Z,76.54
2023-04-01T11:27:06.125Z,75.54
2023-04-01T11:30:06.526Z,75.00
2023-04-01T11:32:47.812Z,74.77
2023-04-01T11:35:43.982Z,74.53
2023-04-01T11:38:44.105Z,73.70
2023-04-01T11:41:23.088Z,73.29
2023-04-01T11:44:16.288Z,72.86
2023-04-01T11:46:43.157Z,72.30
2023-04-01T11:49:37.998Z,72.08
2023-04-01T11:52:32.435Z,71.79
2023-04-01T11:54:59.176Z,71.88
2023-04-01T11:57:31.724Z,70.96
2023-04-01T12:00:24.140Z,70.80
2023-04-01T12:02:53.953Z,70.42
2023-04-01T12:05:47.674Z,69.98
2023-04-01T12:08:25.367Z,69.91
2023-04-01T12:11:06.535Z,69.32
2023-04-01T12:13:39.125Z,68.66
2023-04-01T12:16:56.495Z,67.63
2023-04-01T12:19:44.718Z,66.65
2023-04-01T12:22:31.317Z,65.78
2023-04-01T12:25:16.232Z,65.49
2023-04-01T12:27:46.894Z,64.89
2023-04-01T12:30:51.396Z,64.53
2023-04-01T12:33:30.109Z,64.25
2023-04-01T12:36:20.271Z,63.99
2023-04-01T12:39:33.634Z,63.69
2023-04-01T12:42:34.533Z,63.55
2023-04-01T12:45:20.579Z,63.38
2023-04-01T12:47:53.520Z,63.02
2023-04-01T12:50:52.987Z,62.66
2023-04-01T12:53:41.530Z,62.30
2023-04-01T12:56:33.675Z,61.73
2023-04-01T12:59:48.522Z,61.13
2023-04-01T13:02:21.184Z,60.40
2023-04-01T13:05:03.556Z,59.81
2023-04-01T13:07:50.190Z,59.19
2023-04-01T13:11:04.849Z,58.75
2023-04-01T13:14:02.691Z,58.53
2023-04-01T13:16:40.071Z,58.37
2023-04-01T13:19:48.604Z,58.18
2023-04-01T13:22:51.653Z,58.25
2023-04-01T13:26:13.867Z,58.13
2023-04-01T13:28:55.101Z,58.13
2023-04-01T13:32:18.051Z,57.94
2023-04-01T13:35:06.336Z,57.84
2023-04-01T13:37:43.364Z,57.72
2023-04-01T13:40:42.781Z,57.46
2023-04-01T13:43:17.416Z,57.66
2023-04-01T13:45:47.014Z,57.37
2023-04-01T13:48:48.882Z,57.58
2023-04-01T13:51:54.886Z,57.58
2023-04-01T13:54:39.314Z,57.46
2023-04-01T13:57:18.047Z,57.47
2023-04-01T13:59:53.803Z,57.79
2023-04-01T14:02:23.314Z,57.56
2023-04-01T14:05:05.108Z,57.80
2023-04-01T14:08:09.071Z,57.96
2023-04-01T14:10:52.482Z,57.92
2023-04-01T14:13:57.813Z,58.16
2023-04-01T14:16:56.562Z,58.38
2023-04-01T14:19:29.972Z,58.55
2023-04-01T14:22:36.270Z,58.90
2023-04-01T14:25:35.018Z,59.28
2023-04-01T14:28:43.556Z,59.42
2023-04-01T14:31:45.341Z,59.84
2023-04-01T14:34:46.407Z,59.77
2023-04-01T14:37:18.857Z,59.99
2023-04-01T14:40:08.560Z,60.18
2023-04-01T14:43:15.944Z,60.54
2023-04-01T14:46:30.605Z,61.03
2023-04-01T14:49:02.986Z,61.09
2023-04-01T14:51:32.377Z,61.58
2023-04-01T14:54:24.097Z,61.79
2023-04-01T14:57:13.699Z,62.05
2023-04-01T15:00:11.201Z,61.89
2023-04-01T15:02:52.309Z,62.42
2023-04-01T15:05:48.722Z,62.87
2023-04-01T15:09:07.032Z,62.97
2023-04-01T15:12:34.817Z,63.64
2023-04-01T15:15:56.794Z,64.14
2023-04-01T15:18:46.439Z,64.80
2023-04-01T15:21:57.708Z,65.08
2023-04-01T15:24:44.386Z,65.73
2023-04-01T15:28:15.941Z,65.95
2023-04-01T15:31:24.646Z,66.18
2023-04-01T15:34:30.124Z,66.41
2023-04-01T15:37:39.485Z,66.88
2023-04-01T15:41:24.293Z,67.02
2023-04-01T15:48:53.883Z,67.90
2023-04-01T15:51:46.363Z,68.46
2023-04-01T15:55:10.653Z,68.63
2023-04-01T15:58:17.309Z,69.14
2023-04-01T16:01:22.017Z,69.40
2023-04-01T16:04:17.607Z,69.74
2023-04-01T16:08:05.350Z,69.74
2023-04-01T16:10:54.415Z,69.96
2023-04-01T16:14:23.741Z,70.46
2023-04-01T16:17:29.515Z,70.47
2023-04-01T16:20:39.089Z,70.92
2023-04-01T16:27:42.974Z,71.42
2023-04-01T16:31:17.327Z,72.13
2023-04-01T16:35:02.729Z,72.52
2023-04-01T16:41:13.131Z,73.36
2023-04-01T16:44:19.857Z,73.59
2023-04-01T16:47:46.557Z,74.18
2023-04-01T18:22:23.660Z,78.37
2023-04-01T18:25:20.094Z,78.12
2023-04-01T18:28:16.328Z,78.16
2023-04-01T18:30:45.382Z,78.43
2023-04-01T18:33:32.883Z,78.35
2023-04-01T18:36:14.524Z,78.64
2023-04-01T18:38:51.782Z,78.66
2023-04-01T18:42:13.623Z,78.50
2023-04-01T18:44:50.068Z,78.73
2023-04-01T18:48:12.330Z,78.59
2023-04-01T18:51:37.920Z,78.68
2023-04-01T18:58:52.131Z,78.59
2023-04-01T19:02:37.084Z,78.72
2023-04-01T19:09:37.754Z,78.53
2023-04-01T19:12:59.574Z,78.91
2023-04-01T19:15:57.986Z,78.89
2023-04-01T19:18:39.926Z,78.58
2023-04-01T19:21:25.836Z,78.67
2023-04-01T19:24:17.659Z,78.58
2023-04-01T19:27:27.012Z,78.46
2023-04-01T19:34:43.392Z,77.81
2023-04-01T19:38:16.014Z,77.97
2023-04-01T19:41:14.769Z,77.70
2023-04-01T19:44:36.033Z,77.56
2023-04-01T19:48:23.695Z,77.56
2023-04-01T19:55:12.383Z,77.13
2023-04-01T19:58:07.153Z,77.09
2023-04-01T20:00:43.773Z,76.55
2023-04-01T20:03:22.877Z,76.52
2023-04-01T20:06:17.934Z,76.47
2023-04-01T20:09:19.793Z,76.49
2023-04-01T20:12:51.895Z,76.41
2023-04-01T20:16:26.642Z,76.19
2023-04-01T20:19:53.177Z,75.75
2023-04-01T20:22:55.918Z,75.96
2023-04-01T20:26:11.778Z,75.77
2023-04-01T20:29:24.633Z,75.74
2023-04-01T20:32:13.342Z,75.40
2023-04-01T20:35:30.423Z,75.28
2023-04-01T20:38:38.997Z,75.00
2023-04-01T20:41:24.656Z,74.80
2023-04-01T20:44:29.514Z,74.97
2023-04-01T20:47:28.299Z,74.74
2023-04-01T20:50:17.692Z,74.59
2023-04-01T20:53:16.580Z,74.75
2023-04-01T20:56:31.247Z,74.34
2023-04-01T20:59:45.628Z,74.20
2023-04-01T21:02:41.659Z,74.42
2023-04-01T21:05:46.506Z,73.67
2023-04-01T21:09:07.791Z,73.63
2023-04-01T21:11:40.491Z,73.54
2023-04-01T21:14:32.239Z,73.57
2023-04-01T21:21:54.528Z,73.46
2023-04-01T21:25:13.273Z,73.15
2023-04-01T21:27:55.453Z,73.15
2023-04-01T21:30:45.048Z,73.38
2023-04-01T21:34:28.422Z,72.79
2023-04-01T21:37:43.629Z,72.96
2023-04-01T21:44:40.554Z,72.92
2023-04-01T21:47:38.273Z,72.60
2023-04-01T21:50:31.001Z,72.73
2023-04-01T21:53:16.179Z,72.68
2023-04-01T21:56:16.784Z,72.46
2023-04-01T21:59:12.483Z,72.76
2023-04-01T22:02:17.344Z,72.31
2023-04-01T22:05:32.920Z,72.38
2023-04-01T22:08:22.122Z,72.63
2023-04-01T22:11:13.285Z,72.40
2023-04-01T22:14:35.008Z,72.46
2023-04-01T22:17:46.307Z,72.50
2023-04-01T22:21:35.087Z,72.64
2023-04-01T22:25:13.939Z,72.55
2023-04-01T22:28:12.435Z,72.84
2023-04-01T22:31:53.999Z,72.57
2023-04-01T22:35:48.313Z,72.87
2023-04-01T22:39:13.204Z,72.85
2023-04-01T22:42:40.736Z,73.22
2023-04-01T22:45:34.262Z,73.19
2023-04-01T22:48:33.099Z,72.92
2023-04-01T22:52:05.574Z,73.16
2023-04-01T23:00:03.931Z,73.37
2023-04-01T23:03:45.777Z,73.63
2023-04-01T23:07:12.352Z,73.65
2023-04-01T23:10:38.942Z,73.73
2023-04-01T23:14:05.549Z,73.65
2023-04-01T23:17:41.174Z,73.61
2023-04-01T23:20:43.534Z,73.79
2023-04-01T23:23:58.936Z,74.02
2023-04-01T23:27:40.229Z,74.11
2023-04-01T23:30:53.002Z,74.34
2023-04-01T23:37:33.711Z,74.45
2023-04-01T23:41:00.253Z,74.58
